sensor_id;sensor_type;location;lat;lon;timestamp;P1;durP1;ratioP1;P2;durP2;ratioP2
80508;SDS011;69838;52.602;13.434;2023-07-31T00:00:29;5.32;;;2.83;;
80508;SDS011;69838;52.602;13.434;2023-07-31T00:01:15;6.00;;;2.97;;
80508;SDS011;69838;52.602;13.434;2023-07-31T00:02:00;6.85;;;2.47;;
80508;SDS011;69838;52.602;13.434;2023-07-31T00:02:45;6.68;;;3.08;;
80508;SDS011;69838;52.602;13.434;2023-07-31T00:03:30;4.75;;;2.95;;
80508;SDS011;69838;52.602;13.434;2023-07-31T00:04:15;7.20;;;2.80;;
80508;SDS011;69838;52.602;13.434;2023-07-31T00:05:01;8.40;;;3.05;;
80508;SDS011;69838;52.602;13.434;2023-07-31T00:05:46;7.68;;;2.97;;
80508;SDS011;69838;52.602;13.434;2023-07-31T00:06:31;6.05;;;2.75;;
80508;SDS011;69838;52.602;13.434;2023-07-31T00:07:17;7.10;;;2.80;;
80508;SDS011;69838;52.602;13.434;2023-07-31T00:08:03;6.20;;;2.88;;
80508;SDS011;69838;52.602;13.434;2023-07-31T00:08:48;7.43;;;3.05;;
80508;SDS011;69838;52.602;13.434;2023-07-31T00:09:33;5.85;;;3.03;;
80508;SDS011;69838;52.602;13.434;2023-07-31T00:10:18;5.80;;;4.28;;
80508;SDS011;69838;52.602;13.434;2023-07-31T00:11:04;5.93;;;3.10;;
80508;SDS011;69838;52.602;13.434;2023-07-31T00:11:49;6.03;;;2.60;;
80508;SDS011;69838;52.602;13.434;2023-07-31T00:12:34;6.82;;;2.63;;
80508;SDS011;69838;52.602;13.434;2023-07-31T00:13:20;5.68;;;2.83;;
80508;SDS011;69838;52.602;13.434;2023-07-31T00:14:05;8.15;;;2.97;;
80508;SDS011;69838;52.602;13.434;2023-07-31T00:14:50;6.38;;;3.67;;
80508;SDS011;69838;52.602;13.434;2023-07-31T00:15:36;6.43;;;2.60;;
80508;SDS011;69838;52.602;13.434;2023-07-31T00:16:21;6.30;;;3.03;;
80508;SDS011;69838;52.602;13.434;2023-07-31T00:17:06;6.25;;;2.47;;
80508;SDS011;69838;52.602;13.434;2023-07-31T00:17:51;5.68;;;2.60;;
80508;SDS011;69838;52.602;13.434;2023-07-31T00:18:37;7.00;;;3.38;;
80508;SDS011;69838;52.602;13.434;2023-07-31T00:19:22;6.32;;;2.88;;
80508;SDS011;69838;52.602;13.434;2023-07-31T00:20:07;9.32;;;2.95;;
80508;SDS011;69838;52.602;13.434;2023-07-31T00:20:53;5.63;;;2.60;;
80508;SDS011;69838;52.602;13.434;2023-07-31T00:21:38;8.55;;;2.70;;
80508;SDS011;69838;52.602;13.434;2023-07-31T00:22:23;6.75;;;3.10;;
80508;SDS011;69838;52.602;13.434;2023-07-31T00:23:09;6.85;;;3.60;;
80508;SDS011;69838;52.602;13.434;2023-07-31T00:23:54;5.07;;;2.42;;
80508;SDS011;69838;52.602;13.434;2023-07-31T00:24:39;5.28;;;2.72;;
80508;SDS011;69838;52.602;13.434;2023-07-31T00:25:24;6.55;;;2.72;;
80508;SDS011;69838;52.602;13.434;2023-07-31T00:26:10;6.22;;;2.80;;
80508;SDS011;69838;52.602;13.434;2023-07-31T00:26:55;5.07;;;2.53;;
80508;SDS011;69838;52.602;13.434;2023-07-31T00:27:40;6.57;;;3.15;;
80508;SDS011;69838;52.602;13.434;2023-07-31T00:28:29;6.00;;;2.42;;
80508;SDS011;69838;52.602;13.434;2023-07-31T00:29:14;6.68;;;2.72;;
80508;SDS011;69838;52.602;13.434;2023-07-31T00:29:59;6.10;;;2.97;;
80508;SDS011;69838;52.602;13.434;2023-07-31T00:30:45;6.75;;;2.45;;
80508;SDS011;69838;52.602;13.434;2023-07-31T00:31:30;7.40;;;3.13;;
80508;SDS011;69838;52.602;13.434;2023-07-31T00:32:15;7.35;;;3.05;;
80508;SDS011;69838;52.602;13.434;2023-07-31T00:33:00;5.53;;;2.88;;
80508;SDS011;69838;52.602;13.434;2023-07-31T00:33:45;5.30;;;2.45;;
80508;SDS011;69838;52.602;13.434;2023-07-31T00:34:31;6.35;;;2.75;;
80508;SDS011;69838;52.602;13.434;2023-07-31T00:35:16;6.00;;;2.30;;
80508;SDS011;69838;52.602;13.434;2023-07-31T00:36:01;6.00;;;2.53;;
80508;SDS011;69838;52.602;13.434;2023-07-31T00:36:47;7.30;;;2.72;;
80508;SDS011;69838;52.602;13.434;2023-07-31T00:37:32;5.78;;;2.30;;
80508;SDS011;69838;52.602;13.434;2023-07-31T00:38:17;5.75;;;2.40;;
80508;SDS011;69838;52.602;13.434;2023-07-31T00:39:02;6.32;;;2.90;;
80508;SDS011;69838;52.602;13.434;2023-07-31T00:39:49;6.55;;;2.60;;
80508;SDS011;69838;52.602;13.434;2023-07-31T00:40:37;6.18;;;2.88;;
80508;SDS011;69838;52.602;13.434;2023-07-31T00:41:22;7.78;;;3.38;;
80508;SDS011;69838;52.602;13.434;2023-07-31T00:42:07;4.45;;;2.20;;
80508;SDS011;69838;52.602;13.434;2023-07-31T00:42:53;5.40;;;3.05;;
80508;SDS011;69838;52.602;13.434;2023-07-31T00:43:38;4.57;;;2.38;;
80508;SDS011;69838;52.602;13.434;2023-07-31T00:44:23;4.93;;;2.67;;
80508;SDS011;69838;52.602;13.434;2023-07-31T00:45:08;6.10;;;2.53;;
80508;SDS011;69838;52.602;13.434;2023-07-31T00:45:54;4.95;;;2.30;;
80508;SDS011;69838;52.602;13.434;2023-07-31T00:46:39;5.13;;;2.63;;
80508;SDS011;69838;52.602;13.434;2023-07-31T00:47:24;6.95;;;2.33;;
80508;SDS011;69838;52.602;13.434;2023-07-31T00:48:10;6.30;;;2.88;;
80508;SDS011;69838;52.602;13.434;2023-07-31T00:48:56;5.32;;;2.67;;
80508;SDS011;69838;52.602;13.434;2023-07-31T00:49:42;6.25;;;2.78;;
80508;SDS011;69838;52.602;13.434;2023-07-31T00:50:27;5.72;;;2.90;;
80508;SDS011;69838;52.602;13.434;2023-07-31T00:51:13;4.55;;;2.53;;
80508;SDS011;69838;52.602;13.434;2023-07-31T00:51:59;4.57;;;2.35;;
80508;SDS011;69838;52.602;13.434;2023-07-31T00:52:44;5.88;;;3.15;;
80508;SDS011;69838;52.602;13.434;2023-07-31T00:53:29;7.53;;;3.15;;
80508;SDS011;69838;52.602;13.434;2023-07-31T00:54:15;5.07;;;2.60;;
80508;SDS011;69838;52.602;13.434;2023-07-31T00:55:00;5.07;;;2.28;;
80508;SDS011;69838;52.602;13.434;2023-07-31T00:55:46;7.47;;;2.88;;
80508;SDS011;69838;52.602;13.434;2023-07-31T00:56:31;4.93;;;2.17;;
80508;SDS011;69838;52.602;13.434;2023-07-31T00:57:17;5.72;;;2.63;;
80508;SDS011;69838;52.602;13.434;2023-07-31T00:58:02;5.88;;;2.40;;
80508;SDS011;69838;52.602;13.434;2023-07-31T00:58:47;6.00;;;2.50;;
80508;SDS011;69838;52.602;13.434;2023-07-31T00:59:33;5.57;;;2.10;;
80508;SDS011;69838;52.602;13.434;2023-07-31T01:00:18;7.15;;;2.47;;
80508;SDS011;69838;52.602;13.434;2023-07-31T01:01:04;5.05;;;2.42;;
80508;SDS011;69838;52.602;13.434;2023-07-31T01:01:49;6.07;;;2.45;;
80508;SDS011;69838;52.602;13.434;2023-07-31T01:02:35;4.75;;;2.88;;
80508;SDS011;69838;52.602;13.434;2023-07-31T01:03:20;6.32;;;2.35;;
80508;SDS011;69838;52.602;13.434;2023-07-31T01:04:06;4.13;;;1.92;;
80508;SDS011;69838;52.602;13.434;2023-07-31T01:04:52;5.70;;;2.20;;
80508;SDS011;69838;52.602;13.434;2023-07-31T01:05:40;4.80;;;2.03;;
80508;SDS011;69838;52.602;13.434;2023-07-31T01:08:37;5.78;;;2.50;;
80508;SDS011;69838;52.602;13.434;2023-07-31T01:09:35;4.63;;;2.40;;
80508;SDS011;69838;52.602;13.434;2023-07-31T01:10:26;5.47;;;2.55;;
80508;SDS011;69838;52.602;13.434;2023-07-31T01:11:17;5.93;;;2.78;;
80508;SDS011;69838;52.602;13.434;2023-07-31T01:12:07;5.82;;;2.40;;
80508;SDS011;69838;52.602;13.434;2023-07-31T01:12:54;5.55;;;2.42;;
80508;SDS011;69838;52.602;13.434;2023-07-31T01:13:42;4.43;;;2.47;;
80508;SDS011;69838;52.602;13.434;2023-07-31T01:14:29;3.97;;;2.33;;
80508;SDS011;69838;52.602;13.434;2023-07-31T01:15:14;5.63;;;2.88;;
80508;SDS011;69838;52.602;13.434;2023-07-31T01:16:00;5.35;;;2.53;;
80508;SDS011;69838;52.602;13.434;2023-07-31T01:16:45;5.88;;;2.60;;
80508;SDS011;69838;52.602;13.434;2023-07-31T01:17:30;4.18;;;2.33;;
80508;SDS011;69838;52.602;13.434;2023-07-31T01:18:15;5.68;;;2.63;;
80508;SDS011;69838;52.602;13.434;2023-07-31T01:19:01;4.75;;;2.67;;
80508;SDS011;69838;52.602;13.434;2023-07-31T01:19:46;7.93;;;2.50;;
80508;SDS011;69838;52.602;13.434;2023-07-31T01:20:32;6.10;;;2.45;;
80508;SDS011;69838;52.602;13.434;2023-07-31T01:22:25;5.43;;;3.30;;
80508;SDS011;69838;52.602;13.434;2023-07-31T01:23:35;4.57;;;2.40;;
80508;SDS011;69838;52.602;13.434;2023-07-31T01:24:54;5.45;;;2.45;;
80508;SDS011;69838;52.602;13.434;2023-07-31T01:26:39;5.45;;;2.10;;
80508;SDS011;69838;52.602;13.434;2023-07-31T01:27:29;6.18;;;2.40;;
80508;SDS011;69838;52.602;13.434;2023-07-31T01:28:20;6.40;;;2.75;;
80508;SDS011;69838;52.602;13.434;2023-07-31T01:30:21;4.85;;;2.13;;
80508;SDS011;69838;52.602;13.434;2023-07-31T01:31:12;4.97;;;2.55;;
80508;SDS011;69838;52.602;13.434;2023-07-31T01:32:01;4.60;;;2.88;;
80508;SDS011;69838;52.602;13.434;2023-07-31T01:32:48;5.68;;;2.22;;
80508;SDS011;69838;52.602;13.434;2023-07-31T01:33:36;5.15;;;2.60;;
80508;SDS011;69838;52.602;13.434;2023-07-31T01:34:22;6.63;;;2.60;;
80508;SDS011;69838;52.602;13.434;2023-07-31T01:35:08;6.03;;;2.58;;
80508;SDS011;69838;52.602;13.434;2023-07-31T01:35:54;6.10;;;2.95;;
80508;SDS011;69838;52.602;13.434;2023-07-31T01:36:39;5.75;;;2.92;;
80508;SDS011;69838;52.602;13.434;2023-07-31T01:37:28;7.60;;;3.20;;
80508;SDS011;69838;52.602;13.434;2023-07-31T01:38:14;4.50;;;2.72;;
80508;SDS011;69838;52.602;13.434;2023-07-31T01:39:00;6.20;;;2.40;;
80508;SDS011;69838;52.602;13.434;2023-07-31T01:39:46;4.80;;;2.47;;
80508;SDS011;69838;52.602;13.434;2023-07-31T01:40:31;5.70;;;2.55;;
80508;SDS011;69838;52.602;13.434;2023-07-31T01:41:19;7.38;;;3.00;;
80508;SDS011;69838;52.602;13.434;2023-07-31T01:42:04;6.60;;;3.22;;
80508;SDS011;69838;52.602;13.434;2023-07-31T01:42:49;5.25;;;2.67;;
80508;SDS011;69838;52.602;13.434;2023-07-31T01:43:35;4.75;;;2.20;;
80508;SDS011;69838;52.602;13.434;2023-07-31T01:44:20;5.28;;;2.20;;
80508;SDS011;69838;52.602;13.434;2023-07-31T01:45:05;6.45;;;2.67;;
80508;SDS011;69838;52.602;13.434;2023-07-31T01:45:51;4.45;;;2.60;;
80508;SDS011;69838;52.602;13.434;2023-07-31T01:46:36;5.07;;;2.20;;
80508;SDS011;69838;52.602;13.434;2023-07-31T01:47:21;6.53;;;3.70;;
80508;SDS011;69838;52.602;13.434;2023-07-31T01:48:08;5.28;;;3.88;;
80508;SDS011;69838;52.602;13.434;2023-07-31T01:48:53;6.10;;;3.30;;
80508;SDS011;69838;52.602;13.434;2023-07-31T01:49:38;5.78;;;2.90;;
80508;SDS011;69838;52.602;13.434;2023-07-31T01:50:24;5.20;;;2.53;;
80508;SDS011;69838;52.602;13.434;2023-07-31T01:51:09;6.18;;;2.72;;
80508;SDS011;69838;52.602;13.434;2023-07-31T01:51:54;5.05;;;2.50;;
80508;SDS011;69838;52.602;13.434;2023-07-31T01:52:40;7.22;;;3.10;;
80508;SDS011;69838;52.602;13.434;2023-07-31T01:53:25;4.93;;;2.67;;
80508;SDS011;69838;52.602;13.434;2023-07-31T01:54:10;5.13;;;2.33;;
80508;SDS011;69838;52.602;13.434;2023-07-31T01:54:56;6.13;;;3.13;;
80508;SDS011;69838;52.602;13.434;2023-07-31T01:55:41;6.95;;;3.00;;
80508;SDS011;69838;52.602;13.434;2023-07-31T01:56:26;4.90;;;3.30;;
80508;SDS011;69838;52.602;13.434;2023-07-31T01:57:12;6.15;;;3.33;;
80508;SDS011;69838;52.602;13.434;2023-07-31T01:57:57;6.15;;;3.13;;
80508;SDS011;69838;52.602;13.434;2023-07-31T01:58:42;6.32;;;3.03;;
80508;SDS011;69838;52.602;13.434;2023-07-31T01:59:28;4.90;;;2.97;;
80508;SDS011;69838;52.602;13.434;2023-07-31T02:00:13;5.22;;;2.83;;
80508;SDS011;69838;52.602;13.434;2023-07-31T02:00:59;7.03;;;3.00;;
80508;SDS011;69838;52.602;13.434;2023-07-31T02:01:44;6.05;;;2.90;;
80508;SDS011;69838;52.602;13.434;2023-07-31T02:02:29;4.30;;;3.05;;
80508;SDS011;69838;52.602;13.434;2023-07-31T02:03:15;6.75;;;2.88;;
80508;SDS011;69838;52.602;13.434;2023-07-31T02:04:00;7.13;;;3.10;;
80508;SDS011;69838;52.602;13.434;2023-07-31T02:04:45;5.68;;;3.00;;
80508;SDS011;69838;52.602;13.434;2023-07-31T02:05:30;5.78;;;3.30;;
80508;SDS011;69838;52.602;13.434;2023-07-31T02:06:16;5.55;;;2.95;;
80508;SDS011;69838;52.602;13.434;2023-07-31T02:07:01;6.15;;;3.20;;
80508;SDS011;69838;52.602;13.434;2023-07-31T02:07:46;6.22;;;3.05;;
80508;SDS011;69838;52.602;13.434;2023-07-31T02:08:31;5.20;;;2.90;;
80508;SDS011;69838;52.602;13.434;2023-07-31T02:09:17;5.90;;;2.83;;
80508;SDS011;69838;52.602;13.434;2023-07-31T02:10:02;6.07;;;3.55;;
80508;SDS011;69838;52.602;13.434;2023-07-31T02:10:47;5.28;;;3.15;;
80508;SDS011;69838;52.602;13.434;2023-07-31T02:11:32;6.10;;;3.08;;
80508;SDS011;69838;52.602;13.434;2023-07-31T02:12:18;6.72;;;3.17;;
80508;SDS011;69838;52.602;13.434;2023-07-31T02:13:03;5.40;;;2.88;;
80508;SDS011;69838;52.602;13.434;2023-07-31T02:13:48;6.28;;;2.90;;
80508;SDS011;69838;52.602;13.434;2023-07-31T02:14:34;5.80;;;3.15;;
80508;SDS011;69838;52.602;13.434;2023-07-31T02:15:19;5.30;;;3.15;;
80508;SDS011;69838;52.602;13.434;2023-07-31T02:16:06;6.60;;;3.35;;
80508;SDS011;69838;52.602;13.434;2023-07-31T02:16:51;8.20;;;3.72;;
80508;SDS011;69838;52.602;13.434;2023-07-31T02:17:36;6.00;;;3.78;;
80508;SDS011;69838;52.602;13.434;2023-07-31T02:18:21;6.82;;;3.60;;
80508;SDS011;69838;52.602;13.434;2023-07-31T02:19:07;6.85;;;3.50;;
80508;SDS011;69838;52.602;13.434;2023-07-31T02:19:52;6.65;;;4.13;;
80508;SDS011;69838;52.602;13.434;2023-07-31T02:20:37;6.55;;;2.92;;
80508;SDS011;69838;52.602;13.434;2023-07-31T02:21:23;7.50;;;3.60;;
80508;SDS011;69838;52.602;13.434;2023-07-31T02:22:08;8.32;;;3.97;;
80508;SDS011;69838;52.602;13.434;2023-07-31T02:22:53;7.20;;;3.50;;
80508;SDS011;69838;52.602;13.434;2023-07-31T02:23:38;6.30;;;3.47;;
80508;SDS011;69838;52.602;13.434;2023-07-31T02:24:24;4.95;;;3.70;;
80508;SDS011;69838;52.602;13.434;2023-07-31T02:25:09;5.55;;;3.55;;
80508;SDS011;69838;52.602;13.434;2023-07-31T02:25:54;6.03;;;4.05;;
80508;SDS011;69838;52.602;13.434;2023-07-31T02:26:39;5.68;;;3.63;;
80508;SDS011;69838;52.602;13.434;2023-07-31T02:27:25;6.07;;;3.70;;
80508;SDS011;69838;52.602;13.434;2023-07-31T02:28:12;7.10;;;3.10;;
80508;SDS011;69838;52.602;13.434;2023-07-31T02:28:57;5.65;;;3.30;;
80508;SDS011;69838;52.602;13.434;2023-07-31T02:29:43;6.20;;;3.85;;
80508;SDS011;69838;52.602;13.434;2023-07-31T02:30:28;4.80;;;3.15;;
80508;SDS011;69838;52.602;13.434;2023-07-31T02:31:13;7.22;;;3.40;;
80508;SDS011;69838;52.602;13.434;2023-07-31T02:31:58;7.32;;;3.67;;
80508;SDS011;69838;52.602;13.434;2023-07-31T02:32:44;6.28;;;3.83;;
80508;SDS011;69838;52.602;13.434;2023-07-31T02:33:29;6.43;;;4.13;;
80508;SDS011;69838;52.602;13.434;2023-07-31T02:34:14;7.90;;;3.95;;
80508;SDS011;69838;52.602;13.434;2023-07-31T02:34:59;7.55;;;3.53;;
80508;SDS011;69838;52.602;13.434;2023-07-31T02:35:45;6.68;;;3.60;;
80508;SDS011;69838;52.602;13.434;2023-07-31T02:36:30;8.43;;;3.47;;
80508;SDS011;69838;52.602;13.434;2023-07-31T02:37:15;6.75;;;4.03;;
80508;SDS011;69838;52.602;13.434;2023-07-31T02:38:00;6.20;;;3.83;;
80508;SDS011;69838;52.602;13.434;2023-07-31T02:38:46;5.88;;;3.83;;
80508;SDS011;69838;52.602;13.434;2023-07-31T02:39:31;6.45;;;4.70;;
80508;SDS011;69838;52.602;13.434;2023-07-31T02:40:16;7.68;;;4.32;;
80508;SDS011;69838;52.602;13.434;2023-07-31T02:41:01;7.05;;;4.18;;
80508;SDS011;69838;52.602;13.434;2023-07-31T02:41:47;6.40;;;4.05;;
80508;SDS011;69838;52.602;13.434;2023-07-31T02:42:32;8.60;;;4.65;;
80508;SDS011;69838;52.602;13.434;2023-07-31T02:43:17;7.68;;;4.00;;
80508;SDS011;69838;52.602;13.434;2023-07-31T02:44:02;6.68;;;4.38;;
80508;SDS011;69838;52.602;13.434;2023-07-31T02:44:48;8.07;;;5.28;;
80508;SDS011;69838;52.602;13.434;2023-07-31T02:45:34;6.78;;;4.10;;
80508;SDS011;69838;52.602;13.434;2023-07-31T02:46:19;6.88;;;4.55;;
80508;SDS011;69838;52.602;13.434;2023-07-31T02:47:05;8.27;;;4.78;;
80508;SDS011;69838;52.602;13.434;2023-07-31T02:47:50;6.15;;;4.43;;
80508;SDS011;69838;52.602;13.434;2023-07-31T02:48:35;6.65;;;4.13;;
80508;SDS011;69838;52.602;13.434;2023-07-31T02:49:20;6.35;;;4.05;;
80508;SDS011;69838;52.602;13.434;2023-07-31T02:50:06;6.65;;;4.43;;
80508;SDS011;69838;52.602;13.434;2023-07-31T02:50:51;7.78;;;5.05;;
80508;SDS011;69838;52.602;13.434;2023-07-31T02:51:36;6.63;;;4.85;;
80508;SDS011;69838;52.602;13.434;2023-07-31T02:52:22;7.60;;;4.72;;
80508;SDS011;69838;52.602;13.434;2023-07-31T02:53:07;7.95;;;4.60;;
80508;SDS011;69838;52.602;13.434;2023-07-31T02:53:52;7.70;;;4.38;;
80508;SDS011;69838;52.602;13.434;2023-07-31T02:54:37;6.95;;;4.28;;
80508;SDS011;69838;52.602;13.434;2023-07-31T02:55:23;7.10;;;4.47;;
80508;SDS011;69838;52.602;13.434;2023-07-31T02:56:08;8.85;;;4.32;;
80508;SDS011;69838;52.602;13.434;2023-07-31T02:56:53;8.07;;;4.32;;
80508;SDS011;69838;52.602;13.434;2023-07-31T02:57:39;7.93;;;4.70;;
80508;SDS011;69838;52.602;13.434;2023-07-31T02:58:24;7.20;;;4.15;;
80508;SDS011;69838;52.602;13.434;2023-07-31T02:59:09;6.68;;;4.68;;
80508;SDS011;69838;52.602;13.434;2023-07-31T02:59:54;8.30;;;5.40;;
80508;SDS011;69838;52.602;13.434;2023-07-31T03:00:43;6.03;;;4.60;;
80508;SDS011;69838;52.602;13.434;2023-07-31T03:01:29;8.05;;;4.97;;
80508;SDS011;69838;52.602;13.434;2023-07-31T03:02:14;7.65;;;4.43;;
80508;SDS011;69838;52.602;13.434;2023-07-31T03:02:59;7.63;;;4.65;;
80508;SDS011;69838;52.602;13.434;2023-07-31T03:03:45;9.40;;;4.38;;
80508;SDS011;69838;52.602;13.434;2023-07-31T03:04:30;9.80;;;5.90;;
80508;SDS011;69838;52.602;13.434;2023-07-31T03:05:15;7.22;;;4.75;;
80508;SDS011;69838;52.602;13.434;2023-07-31T03:06:00;6.88;;;4.80;;
80508;SDS011;69838;52.602;13.434;2023-07-31T03:06:46;7.40;;;4.72;;
80508;SDS011;69838;52.602;13.434;2023-07-31T03:07:31;7.22;;;5.00;;
80508;SDS011;69838;52.602;13.434;2023-07-31T03:08:16;7.85;;;5.00;;
80508;SDS011;69838;52.602;13.434;2023-07-31T03:09:01;8.77;;;5.00;;
80508;SDS011;69838;52.602;13.434;2023-07-31T03:09:47;7.88;;;4.45;;
80508;SDS011;69838;52.602;13.434;2023-07-31T03:10:32;6.50;;;4.80;;
80508;SDS011;69838;52.602;13.434;2023-07-31T03:11:17;8.23;;;4.53;;
80508;SDS011;69838;52.602;13.434;2023-07-31T03:12:02;8.20;;;4.55;;
80508;SDS011;69838;52.602;13.434;2023-07-31T03:12:48;7.38;;;4.55;;
80508;SDS011;69838;52.602;13.434;2023-07-31T03:13:33;7.00;;;4.93;;
80508;SDS011;69838;52.602;13.434;2023-07-31T03:14:18;7.60;;;5.30;;
80508;SDS011;69838;52.602;13.434;2023-07-31T03:15:04;7.82;;;4.50;;
80508;SDS011;69838;52.602;13.434;2023-07-31T03:15:49;6.95;;;4.68;;
80508;SDS011;69838;52.602;13.434;2023-07-31T03:16:35;8.65;;;5.38;;
80508;SDS011;69838;52.602;13.434;2023-07-31T03:17:20;6.88;;;5.00;;
80508;SDS011;69838;52.602;13.434;2023-07-31T03:18:05;9.25;;;4.93;;
80508;SDS011;69838;52.602;13.434;2023-07-31T03:18:51;9.10;;;5.90;;
80508;SDS011;69838;52.602;13.434;2023-07-31T03:19:36;7.88;;;4.85;;
80508;SDS011;69838;52.602;13.434;2023-07-31T03:20:21;9.38;;;5.30;;
80508;SDS011;69838;52.602;13.434;2023-07-31T03:21:06;8.60;;;4.95;;
80508;SDS011;69838;52.602;13.434;2023-07-31T03:21:51;9.07;;;5.47;;
80508;SDS011;69838;52.602;13.434;2023-07-31T03:22:37;8.18;;;6.10;;
80508;SDS011;69838;52.602;13.434;2023-07-31T03:23:22;8.25;;;4.95;;
80508;SDS011;69838;52.602;13.434;2023-07-31T03:24:08;9.52;;;5.50;;
80508;SDS011;69838;52.602;13.434;2023-07-31T03:24:53;9.05;;;5.75;;
80508;SDS011;69838;52.602;13.434;2023-07-31T03:25:39;9.18;;;4.85;;
80508;SDS011;69838;52.602;13.434;2023-07-31T03:26:26;9.38;;;5.20;;
80508;SDS011;69838;52.602;13.434;2023-07-31T03:27:11;7.63;;;4.93;;
80508;SDS011;69838;52.602;13.434;2023-07-31T03:27:57;10.13;;;5.68;;
80508;SDS011;69838;52.602;13.434;2023-07-31T03:28:42;8.13;;;5.60;;
80508;SDS011;69838;52.602;13.434;2023-07-31T03:29:27;8.43;;;5.60;;
80508;SDS011;69838;52.602;13.434;2023-07-31T03:30:12;8.70;;;5.25;;
80508;SDS011;69838;52.602;13.434;2023-07-31T03:30:58;7.53;;;5.18;;
80508;SDS011;69838;52.602;13.434;2023-07-31T03:31:43;10.40;;;6.25;;
80508;SDS011;69838;52.602;13.434;2023-07-31T03:32:28;8.55;;;5.57;;
80508;SDS011;69838;52.602;13.434;2023-07-31T03:33:13;9.10;;;5.47;;
80508;SDS011;69838;52.602;13.434;2023-07-31T03:33:59;9.80;;;6.00;;
80508;SDS011;69838;52.602;13.434;2023-07-31T03:34:44;7.72;;;5.10;;
80508;SDS011;69838;52.602;13.434;2023-07-31T03:35:29;8.60;;;5.63;;
80508;SDS011;69838;52.602;13.434;2023-07-31T03:36:14;8.43;;;5.80;;
80508;SDS011;69838;52.602;13.434;2023-07-31T03:37:00;11.50;;;5.88;;
80508;SDS011;69838;52.602;13.434;2023-07-31T03:37:45;8.07;;;6.25;;
80508;SDS011;69838;52.602;13.434;2023-07-31T03:38:30;9.85;;;7.05;;
80508;SDS011;69838;52.602;13.434;2023-07-31T03:39:15;8.65;;;5.60;;
80508;SDS011;69838;52.602;13.434;2023-07-31T03:40:01;9.52;;;5.40;;
80508;SDS011;69838;52.602;13.434;2023-07-31T03:40:46;9.15;;;5.88;;
80508;SDS011;69838;52.602;13.434;2023-07-31T03:41:31;7.43;;;5.25;;
80508;SDS011;69838;52.602;13.434;2023-07-31T03:42:16;8.45;;;5.18;;
80508;SDS011;69838;52.602;13.434;2023-07-31T03:43:02;8.38;;;5.18;;
80508;SDS011;69838;52.602;13.434;2023-07-31T03:43:49;8.85;;;5.03;;
80508;SDS011;69838;52.602;13.434;2023-07-31T03:44:40;12.13;;;6.03;;
80508;SDS011;69838;52.602;13.434;2023-07-31T03:45:26;8.48;;;5.70;;
80508;SDS011;69838;52.602;13.434;2023-07-31T03:46:11;9.48;;;5.82;;
80508;SDS011;69838;52.602;13.434;2023-07-31T03:46:56;8.13;;;5.47;;
80508;SDS011;69838;52.602;13.434;2023-07-31T03:47:41;9.80;;;5.40;;
80508;SDS011;69838;52.602;13.434;2023-07-31T03:48:27;9.55;;;5.80;;
80508;SDS011;69838;52.602;13.434;2023-07-31T03:49:12;10.20;;;5.63;;
80508;SDS011;69838;52.602;13.434;2023-07-31T03:49:57;7.85;;;5.60;;
80508;SDS011;69838;52.602;13.434;2023-07-31T03:50:42;8.80;;;5.55;;
80508;SDS011;69838;52.602;13.434;2023-07-31T03:51:28;9.13;;;5.50;;
80508;SDS011;69838;52.602;13.434;2023-07-31T03:52:13;8.13;;;5.72;;
80508;SDS011;69838;52.602;13.434;2023-07-31T03:52:58;9.88;;;5.82;;
80508;SDS011;69838;52.602;13.434;2023-07-31T03:53:44;9.70;;;5.60;;
80508;SDS011;69838;52.602;13.434;2023-07-31T03:54:29;9.13;;;6.22;;
80508;SDS011;69838;52.602;13.434;2023-07-31T03:55:14;8.13;;;5.57;;
80508;SDS011;69838;52.602;13.434;2023-07-31T03:56:00;8.13;;;5.82;;
80508;SDS011;69838;52.602;13.434;2023-07-31T03:56:45;8.20;;;5.80;;
80508;SDS011;69838;52.602;13.434;2023-07-31T03:57:30;7.68;;;5.10;;
80508;SDS011;69838;52.602;13.434;2023-07-31T03:58:17;9.88;;;4.93;;
80508;SDS011;69838;52.602;13.434;2023-07-31T03:59:02;10.07;;;6.05;;
80508;SDS011;69838;52.602;13.434;2023-07-31T03:59:47;8.45;;;5.25;;
80508;SDS011;69838;52.602;13.434;2023-07-31T04:00:33;8.45;;;5.55;;
80508;SDS011;69838;52.602;13.434;2023-07-31T04:01:19;9.35;;;5.68;;
80508;SDS011;69838;52.602;13.434;2023-07-31T04:02:04;9.23;;;6.25;;
80508;SDS011;69838;52.602;13.434;2023-07-31T04:02:50;9.73;;;5.07;;
80508;SDS011;69838;52.602;13.434;2023-07-31T04:03:35;9.50;;;5.18;;
80508;SDS011;69838;52.602;13.434;2023-07-31T04:04:20;8.68;;;5.70;;
80508;SDS011;69838;52.602;13.434;2023-07-31T04:05:06;9.85;;;5.97;;
80508;SDS011;69838;52.602;13.434;2023-07-31T04:05:53;7.70;;;5.63;;
80508;SDS011;69838;52.602;13.434;2023-07-31T04:06:39;8.85;;;5.28;;
80508;SDS011;69838;52.602;13.434;2023-07-31T04:07:24;8.77;;;4.70;;
80508;SDS011;69838;52.602;13.434;2023-07-31T04:08:09;10.23;;;5.40;;
80508;SDS011;69838;52.602;13.434;2023-07-31T04:08:54;8.00;;;4.97;;
80508;SDS011;69838;52.602;13.434;2023-07-31T04:09:40;10.45;;;5.32;;
80508;SDS011;69838;52.602;13.434;2023-07-31T04:10:25;10.10;;;5.00;;
80508;SDS011;69838;52.602;13.434;2023-07-31T04:11:10;7.60;;;4.93;;
80508;SDS011;69838;52.602;13.434;2023-07-31T04:11:57;8.48;;;4.93;;
80508;SDS011;69838;52.602;13.434;2023-07-31T04:12:42;7.80;;;4.78;;
80508;SDS011;69838;52.602;13.434;2023-07-31T04:13:29;7.45;;;4.93;;
80508;SDS011;69838;52.602;13.434;2023-07-31T04:14:14;8.35;;;5.07;;
80508;SDS011;69838;52.602;13.434;2023-07-31T04:15:00;10.35;;;5.13;;
80508;SDS011;69838;52.602;13.434;2023-07-31T04:15:48;9.07;;;5.38;;
80508;SDS011;69838;52.602;13.434;2023-07-31T04:16:35;10.52;;;5.78;;
80508;SDS011;69838;52.602;13.434;2023-07-31T04:17:20;8.55;;;5.68;;
80508;SDS011;69838;52.602;13.434;2023-07-31T04:18:06;8.43;;;5.10;;
80508;SDS011;69838;52.602;13.434;2023-07-31T04:18:51;8.60;;;4.88;;
80508;SDS011;69838;52.602;13.434;2023-07-31T04:19:36;8.07;;;5.80;;
80508;SDS011;69838;52.602;13.434;2023-07-31T04:20:21;7.40;;;4.72;;
80508;SDS011;69838;52.602;13.434;2023-07-31T04:21:07;7.93;;;5.28;;
80508;SDS011;69838;52.602;13.434;2023-07-31T04:21:52;10.40;;;4.93;;
80508;SDS011;69838;52.602;13.434;2023-07-31T04:22:37;9.73;;;5.13;;
80508;SDS011;69838;52.602;13.434;2023-07-31T04:23:22;8.15;;;4.97;;
80508;SDS011;69838;52.602;13.434;2023-07-31T04:24:08;11.20;;;5.03;;
80508;SDS011;69838;52.602;13.434;2023-07-31T04:24:53;8.93;;;5.30;;
80508;SDS011;69838;52.602;13.434;2023-07-31T04:25:38;7.45;;;4.88;;
80508;SDS011;69838;52.602;13.434;2023-07-31T04:26:23;8.43;;;5.28;;
80508;SDS011;69838;52.602;13.434;2023-07-31T04:27:09;8.57;;;5.97;;
80508;SDS011;69838;52.602;13.434;2023-07-31T04:27:54;8.98;;;5.28;;
80508;SDS011;69838;52.602;13.434;2023-07-31T04:28:39;7.13;;;4.93;;
80508;SDS011;69838;52.602;13.434;2023-07-31T04:29:24;8.55;;;6.65;;
80508;SDS011;69838;52.602;13.434;2023-07-31T04:30:10;10.88;;;5.47;;
80508;SDS011;69838;52.602;13.434;2023-07-31T04:30:55;7.57;;;5.25;;
80508;SDS011;69838;52.602;13.434;2023-07-31T04:31:40;9.95;;;5.03;;
80508;SDS011;69838;52.602;13.434;2023-07-31T04:32:26;8.07;;;4.85;;
80508;SDS011;69838;52.602;13.434;2023-07-31T04:33:11;9.02;;;4.95;;
80508;SDS011;69838;52.602;13.434;2023-07-31T04:33:56;7.75;;;5.45;;
80508;SDS011;69838;52.602;13.434;2023-07-31T04:34:42;8.77;;;5.20;;
80508;SDS011;69838;52.602;13.434;2023-07-31T04:35:27;8.13;;;5.32;;
80508;SDS011;69838;52.602;13.434;2023-07-31T04:36:13;9.23;;;6.57;;
80508;SDS011;69838;52.602;13.434;2023-07-31T04:36:58;8.20;;;5.07;;